sensor_id;sensor_type;location;lat;lon;timestamp;pressure;altitude;pressure_sealevel;temperature;humidity
30598;BME280;17365;48.878;8.334;2023-05-18T00:00:57;100769.88;;;7.93;78.19
30598;BME280;17365;48.878;8.334;2023-05-18T00:03:24;100759.28;;;7.82;79.45
30598;BME280;17365;48.878;8.334;2023-05-18T00:05:49;100757.50;;;7.80;79.35
30598;BME280;17365;48.878;8.334;2023-05-18T00:08:14;100753.03;;;8.10;77.13
30598;BME280;17365;48.878;8.334;2023-05-18T00:10:39;100747.13;;;8.16;76.84
30598;BME280;17365;48.878;8.334;2023-05-18T00:13:05;100748.53;;;8.03;77.69
30598;BME280;17365;48.878;8.334;2023-05-18T00:15:32;100743.19;;;8.33;75.63
30598;BME280;17365;48.878;8.334;2023-05-18T00:17:57;100751.00;;;7.97;77.27
30598;BME280;17365;48.878;8.334;2023-05-18T00:20:23;100752.00;;;7.66;80.63
30598;BME280;17365;48.878;8.334;2023-05-18T00:22:50;100751.81;;;7.95;78.60
30598;BME280;17365;48.878;8.334;2023-05-18T00:25:15;100754.78;;;7.74;80.12
30598;BME280;17365;48.878;8.334;2023-05-18T00:27:40;100746.16;;;8.11;77.00
30598;BME280;17365;48.878;8.334;2023-05-18T00:30:06;100747.22;;;8.21;76.81
30598;BME280;17365;48.878;8.334;2023-05-18T00:32:31;100747.34;;;7.87;79.98
30598;BME280;17365;48.878;8.334;2023-05-18T00:34:57;100746.69;;;7.96;79.70
30598;BME280;17365;48.878;8.334;2023-05-18T00:37:22;100747.38;;;7.89;80.17
30598;BME280;17365;48.878;8.334;2023-05-18T00:39:47;100738.19;;;7.64;81.43
30598;BME280;17365;48.878;8.334;2023-05-18T00:42:12;100747.78;;;8.06;79.02
30598;BME280;17365;48.878;8.334;2023-05-18T00:44:37;100744.91;;;7.94;80.01
30598;BME280;17365;48.878;8.334;2023-05-18T00:47:03;100740.13;;;8.12;79.10
30598;BME280;17365;48.878;8.334;2023-05-18T00:49:28;100748.50;;;7.63;81.59
30598;BME280;17365;48.878;8.334;2023-05-18T00:51:53;100743.47;;;7.34;84.44
30598;BME280;17365;48.878;8.334;2023-05-18T00:54:19;100748.13;;;7.83;81.61
30598;BME280;17365;48.878;8.334;2023-05-18T00:56:44;100749.88;;;7.84;80.70
30598;BME280;17365;48.878;8.334;2023-05-18T00:59:12;100749.28;;;7.96;80.08
30598;BME280;17365;48.878;8.334;2023-05-18T01:01:37;100746.84;;;7.66;81.75
30598;BME280;17365;48.878;8.334;2023-05-18T01:04:07;100745.75;;;7.56;82.42
30598;BME280;17365;48.878;8.334;2023-05-18T01:06:34;100749.03;;;7.49;82.65
30598;BME280;17365;48.878;8.334;2023-05-18T01:09:00;100740.75;;;7.63;81.75
30598;BME280;17365;48.878;8.334;2023-05-18T01:17:33;100741.66;;;7.30;84.05
30598;BME280;17365;48.878;8.334;2023-05-18T01:28:05;100742.75;;;7.38;82.11
30598;BME280;17365;48.878;8.334;2023-05-18T01:30:32;100737.34;;;6.96;84.09
30598;BME280;17365;48.878;8.334;2023-05-18T01:32:58;100731.66;;;7.44;81.68
30598;BME280;17365;48.878;8.334;2023-05-18T01:35:23;100728.28;;;7.46;81.12
30598;BME280;17365;48.878;8.334;2023-05-18T01:37:48;100744.06;;;7.24;82.54
30598;BME280;17365;48.878;8.334;2023-05-18T01:40:13;100738.41;;;7.37;81.34
30598;BME280;17365;48.878;8.334;2023-05-18T01:42:41;100753.47;;;6.89;84.53
30598;BME280;17365;48.878;8.334;2023-05-18T01:45:10;100739.16;;;7.33;82.15
30598;BME280;17365;48.878;8.334;2023-05-18T01:47:39;100735.31;;;6.53;86.80
30598;BME280;17365;48.878;8.334;2023-05-18T01:50:09;100728.53;;;6.88;85.57
30598;BME280;17365;48.878;8.334;2023-05-18T01:52:45;100738.22;;;6.96;84.07
30598;BME280;17365;48.878;8.334;2023-05-18T01:55:12;100730.91;;;7.13;83.48
30598;BME280;17365;48.878;8.334;2023-05-18T01:57:38;100738.59;;;7.12;83.09
30598;BME280;17365;48.878;8.334;2023-05-18T02:00:05;100733.00;;;6.93;83.57
30598;BME280;17365;48.878;8.334;2023-05-18T02:02:34;100736.72;;;7.39;81.47
30598;BME280;17365;48.878;8.334;2023-05-18T02:04:59;100729.63;;;7.30;81.61
30598;BME280;17365;48.878;8.334;2023-05-18T02:07:24;100732.41;;;7.38;81.04
30598;BME280;17365;48.878;8.334;2023-05-18T02:09:49;100722.09;;;7.38;81.24
30598;BME280;17365;48.878;8.334;2023-05-18T02:12:15;100725.28;;;7.28;81.75
30598;BME280;17365;48.878;8.334;2023-05-18T02:14:40;100716.78;;;7.34;81.16
30598;BME280;17365;48.878;8.334;2023-05-18T02:17:05;100723.41;;;7.22;81.70
30598;BME280;17365;48.878;8.334;2023-05-18T02:19:31;100711.75;;;7.38;80.57
30598;BME280;17365;48.878;8.334;2023-05-18T02:21:57;100719.47;;;7.37;80.41
30598;BME280;17365;48.878;8.334;2023-05-18T02:24:22;100709.97;;;7.36;80.88
30598;BME280;17365;48.878;8.334;2023-05-18T02:26:48;100717.13;;;7.47;80.08
30598;BME280;17365;48.878;8.334;2023-05-18T02:29:13;100709.84;;;7.31;80.06
30598;BME280;17365;48.878;8.334;2023-05-18T02:31:39;100712.06;;;7.50;79.61
30598;BME280;17365;48.878;8.334;2023-05-18T02:34:05;100709.53;;;7.53;79.26
30598;BME280;17365;48.878;8.334;2023-05-18T02:36:30;100704.09;;;7.41;79.39
30598;BME280;17365;48.878;8.334;2023-05-18T02:39:01;100715.31;;;7.43;79.33
30598;BME280;17365;48.878;8.334;2023-05-18T02:41:26;100707.06;;;7.23;80.85
30598;BME280;17365;48.878;8.334;2023-05-18T02:43:51;100700.13;;;7.55;79.43
30598;BME280;17365;48.878;8.334;2023-05-18T02:46:16;100703.59;;;7.57;79.01
30598;BME280;17365;48.878;8.334;2023-05-18T02:48:41;100703.59;;;7.57;79.19
30598;BME280;17365;48.878;8.334;2023-05-18T02:51:09;100707.84;;;7.19;80.34
30598;BME280;17365;48.878;8.334;2023-05-18T02:53:34;100702.38;;;7.42;79.69
30598;BME280;17365;48.878;8.334;2023-05-18T02:56:00;100704.78;;;7.36;79.89
30598;BME280;17365;48.878;8.334;2023-05-18T02:58:27;100708.41;;;7.42;79.97
30598;BME280;17365;48.878;8.334;2023-05-18T03:00:52;100700.84;;;7.14;81.29
30598;BME280;17365;48.878;8.334;2023-05-18T03:03:24;100702.72;;;7.21;80.72
30598;BME280;17365;48.878;8.334;2023-05-18T03:05:49;100700.19;;;7.22;80.54
30598;BME280;17365;48.878;8.334;2023-05-18T03:08:18;100696.75;;;7.23;80.53
30598;BME280;17365;48.878;8.334;2023-05-18T03:10:43;100697.88;;;7.35;80.02
30598;BME280;17365;48.878;8.334;2023-05-18T03:13:09;100716.94;;;7.38;79.79
30598;BME280;17365;48.878;8.334;2023-05-18T03:15:34;100714.88;;;7.25;80.28
30598;BME280;17365;48.878;8.334;2023-05-18T03:18:01;100705.69;;;7.36;79.83
30598;BME280;17365;48.878;8.334;2023-05-18T03:20:26;100708.41;;;7.42;79.54
30598;BME280;17365;48.878;8.334;2023-05-18T03:22:53;100712.25;;;7.23;80.60
30598;BME280;17365;48.878;8.334;2023-05-18T03:25:18;100705.59;;;6.98;82.52
30598;BME280;17365;48.878;8.334;2023-05-18T03:27:44;100714.94;;;6.93;82.58
30598;BME280;17365;48.878;8.334;2023-05-18T03:30:09;100711.47;;;6.93;82.94
30598;BME280;17365;48.878;8.334;2023-05-18T03:32:35;100704.94;;;7.06;81.84
30598;BME280;17365;48.878;8.334;2023-05-18T03:35:01;100709.25;;;7.07;81.87
30598;BME280;17365;48.878;8.334;2023-05-18T03:37:26;100708.41;;;7.08;81.84
30598;BME280;17365;48.878;8.334;2023-05-18T03:39:52;100712.59;;;7.03;82.33
30598;BME280;17365;48.878;8.334;2023-05-18T03:42:17;100715.25;;;7.06;82.12
30598;BME280;17365;48.878;8.334;2023-05-18T03:44:42;100719.63;;;7.10;81.49
30598;BME280;17365;48.878;8.334;2023-05-18T03:47:07;100714.47;;;6.77;82.98
30598;BME280;17365;48.878;8.334;2023-05-18T03:49:33;100725.00;;;6.84;83.11
30598;BME280;17365;48.878;8.334;2023-05-18T03:51:58;100726.09;;;6.92;82.39
30598;BME280;17365;48.878;8.334;2023-05-18T03:54:23;100723.09;;;6.77;83.01
30598;BME280;17365;48.878;8.334;2023-05-18T03:56:48;100730.97;;;7.15;81.28
30598;BME280;17365;48.878;8.334;2023-05-18T03:59:14;100724.00;;;6.79;83.12
30598;BME280;17365;48.878;8.334;2023-05-18T04:01:39;100734.22;;;7.08;81.96
30598;BME280;17365;48.878;8.334;2023-05-18T04:04:08;100731.97;;;6.88;82.77
30598;BME280;17365;48.878;8.334;2023-05-18T04:06:33;100734.72;;;6.94;82.46
30598;BME280;17365;48.878;8.334;2023-05-18T04:08:59;100728.94;;;7.03;82.45
30598;BME280;17365;48.878;8.334;2023-05-18T04:11:28;100737.69;;;7.10;81.70
30598;BME280;17365;48.878;8.334;2023-05-18T04:13:53;100741.78;;;7.01;82.39
30598;BME280;17365;48.878;8.334;2023-05-18T04:16:19;100737.06;;;7.53;80.54
30598;BME280;17365;48.878;8.334;2023-05-18T04:18:45;100747.59;;;7.61;79.65
30598;BME280;17365;48.878;8.334;2023-05-18T04:21:11;100743.28;;;7.99;78.07
30598;BME280;17365;48.878;8.334;2023-05-18T04:23:36;100747.22;;;7.47;80.00
30598;BME280;17365;48.878;8.334;2023-05-18T04:26:03;100753.94;;;8.12;78.32
30598;BME280;17365;48.878;8.334;2023-05-18T04:28:28;100756.41;;;8.45;76.92
30598;BME280;17365;48.878;8.334;2023-05-18T04:30:54;100762.56;;;8.13;77.78
30598;BME280;17365;48.878;8.334;2023-05-18T04:33:19;100762.34;;;8.04;77.55
30598;BME280;17365;48.878;8.334;2023-05-18T04:35:44;100766.69;;;8.42;77.00
30598;BME280;17365;48.878;8.334;2023-05-18T04:38:10;100767.53;;;8.85;75.15
30598;BME280;17365;48.878;8.334;2023-05-18T04:40:35;100763.72;;;9.12;73.76
30598;BME280;17365;48.878;8.334;2023-05-18T04:43:02;100765.19;;;8.97;73.92
30598;BME280;17365;48.878;8.334;2023-05-18T04:45:27;100781.25;;;8.39;76.56
30598;BME280;17365;48.878;8.334;2023-05-18T04:47:53;100775.25;;;8.40;76.06
30598;BME280;17365;48.878;8.334;2023-05-18T04:50:19;100778.53;;;7.95;77.45
30598;BME280;17365;48.878;8.334;2023-05-18T04:52:45;100785.16;;;8.61;76.81
30598;BME280;17365;48.878;8.334;2023-05-18T04:55:14;100783.81;;;8.80;74.46
30598;BME280;17365;48.878;8.334;2023-05-18T04:57:40;100775.59;;;8.57;76.25
30598;BME280;17365;48.878;8.334;2023-05-18T05:00:06;100782.44;;;8.97;74.73
30598;BME280;17365;48.878;8.334;2023-05-18T05:02:33;100781.56;;;9.45;72.38
30598;BME280;17365;48.878;8.334;2023-05-18T05:04:58;100789.88;;;9.27;72.10
30598;BME280;17365;48.878;8.334;2023-05-18T05:07:24;100790.25;;;9.50;73.21
30598;BME280;17365;48.878;8.334;2023-05-18T05:09:49;100779.91;;;9.01;73.75
30598;BME280;17365;48.878;8.334;2023-05-18T05:12:14;100784.00;;;9.37;72.79
30598;BME280;17365;48.878;8.334;2023-05-18T05:14:39;100778.81;;;9.88;71.89
30598;BME280;17365;48.878;8.334;2023-05-18T05:17:05;100782.59;;;10.09;70.48
30598;BME280;17365;48.878;8.334;2023-05-18T05:19:30;100789.56;;;9.60;71.88
30598;BME280;17365;48.878;8.334;2023-05-18T05:21:55;100784.94;;;9.93;71.15
30598;BME280;17365;48.878;8.334;2023-05-18T05:24:20;100787.16;;;9.71;72.00
30598;BME280;17365;48.878;8.334;2023-05-18T05:26:45;100773.59;;;10.44;69.27
30598;BME280;17365;48.878;8.334;2023-05-18T05:29:11;100778.38;;;10.18;68.64
30598;BME280;17365;48.878;8.334;2023-05-18T05:31:36;100773.94;;;10.75;68.82
30598;BME280;17365;48.878;8.334;2023-05-18T05:34:01;100786.94;;;9.55;70.10
30598;BME280;17365;48.878;8.334;2023-05-18T05:36:26;100784.75;;;10.40;69.12
30598;BME280;17365;48.878;8.334;2023-05-18T05:38:51;100779.97;;;10.72;68.48
30598;BME280;17365;48.878;8.334;2023-05-18T05:41:16;100778.19;;;10.65;68.77
30598;BME280;17365;48.878;8.334;2023-05-18T05:43:42;100775.50;;;10.61;67.23
30598;BME280;17365;48.878;8.334;2023-05-18T05:46:07;100781.00;;;10.87;68.07
30598;BME280;17365;48.878;8.334;2023-05-18T05:48:32;100778.00;;;11.29;66.61
30598;BME280;17365;48.878;8.334;2023-05-18T05:50:57;100780.69;;;11.40;65.12
30598;BME280;17365;48.878;8.334;2023-05-18T05:53:22;100786.25;;;10.91;66.02
30598;BME280;17365;48.878;8.334;2023-05-18T05:55:48;100780.34;;;11.03;66.66
30598;BME280;17365;48.878;8.334;2023-05-18T05:58:13;100769.41;;;11.33;65.31
30598;BME280;17365;48.878;8.334;2023-05-18T06:00:38;100779.03;;;11.46;65.32
30598;BME280;17365;48.878;8.334;2023-05-18T06:03:03;100773.44;;;11.06;63.99
30598;BME280;17365;48.878;8.334;2023-05-18T06:05:28;100788.72;;;10.77;64.49
30598;BME280;17365;48.878;8.334;2023-05-18T06:07:55;100773.69;;;11.31;62.37
30598;BME280;17365;48.878;8.334;2023-05-18T06:10:20;100772.13;;;11.53;60.99
30598;BME280;17365;48.878;8.334;2023-05-18T06:12:45;100772.03;;;11.42;63.01
30598;BME280;17365;48.878;8.334;2023-05-18T06:15:10;100774.88;;;11.66;60.48
30598;BME280;17365;48.878;8.334;2023-05-18T06:17:35;100783.94;;;11.19;63.87
30598;BME280;17365;48.878;8.334;2023-05-18T06:20:02;100773.00;;;11.52;61.77
30598;BME280;17365;48.878;8.334;2023-05-18T06:22:29;100769.31;;;11.24;60.40
30598;BME280;17365;48.878;8.334;2023-05-18T06:24:54;100777.44;;;11.63;60.36
30598;BME280;17365;48.878;8.334;2023-05-18T06:27:19;100775.69;;;11.64;59.25
30598;BME280;17365;48.878;8.334;2023-05-18T06:29:44;100775.59;;;11.49;60.17
30598;BME280;17365;48.878;8.334;2023-05-18T06:32:11;100773.28;;;11.84;59.66
30598;BME280;17365;48.878;8.334;2023-05-18T06:34:36;100777.78;;;12.05;58.90
30598;BME280;17365;48.878;8.334;2023-05-18T06:37:02;100773.34;;;11.90;60.23
30598;BME280;17365;48.878;8.334;2023-05-18T06:39:27;100764.53;;;11.77;61.49
30598;BME280;17365;48.878;8.334;2023-05-18T06:41:53;100766.22;;;11.69;61.72
30598;BME280;17365;48.878;8.334;2023-05-18T06:44:18;100774.06;;;11.77;61.82
30598;BME280;17365;48.878;8.334;2023-05-18T06:46:43;100782.53;;;11.54;61.71
30598;BME280;17365;48.878;8.334;2023-05-18T06:49:11;100771.56;;;11.86;60.70
30598;BME280;17365;48.878;8.334;2023-05-18T06:51:36;100772.44;;;11.85;58.93
30598;BME280;17365;48.878;8.334;2023-05-18T06:54:02;100774.06;;;11.77;59.28
30598;BME280;17365;48.878;8.334;2023-05-18T06:56:27;100778.75;;;11.19;57.25
30598;BME280;17365;48.878;8.334;2023-05-18T06:58:53;100776.66;;;11.77;56.60
30598;BME280;17365;48.878;8.334;2023-05-18T07:01:19;100771.84;;;12.27;55.77
30598;BME280;17365;48.878;8.334;2023-05-18T07:03:44;100764.03;;;12.30;55.62
30598;BME280;17365;48.878;8.334;2023-05-18T07:06:09;100773.69;;;12.52;55.47
30598;BME280;17365;48.878;8.334;2023-05-18T07:08:35;100775.25;;;12.15;55.39
30598;BME280;17365;48.878;8.334;2023-05-18T07:11:03;100776.31;;;12.56;55.67
30598;BME280;17365;48.878;8.334;2023-05-18T07:13:28;100768.19;;;11.98;58.78
30598;BME280;17365;48.878;8.334;2023-05-18T07:15:53;100768.56;;;12.75;57.04
30598;BME280;17365;48.878;8.334;2023-05-18T07:18:18;100769.44;;;12.71;55.81
30598;BME280;17365;48.878;8.334;2023-05-18T07:20:44;100763.47;;;13.03;55.19
30598;BME280;17365;48.878;8.334;2023-05-18T07:23:09;100764.31;;;12.93;54.48
30598;BME280;17365;48.878;8.334;2023-05-18T07:25:34;100768.53;;;12.60;55.17
30598;BME280;17365;48.878;8.334;2023-05-18T07:27:59;100768.56;;;12.69;55.60
30598;BME280;17365;48.878;8.334;2023-05-18T07:30:25;100758.28;;;13.18;54.71
30598;BME280;17365;48.878;8.334;2023-05-18T07:32:50;100766.94;;;13.11;55.01
30598;BME280;17365;48.878;8.334;2023-05-18T07:35:16;100762.66;;;13.27;53.93
30598;BME280;17365;48.878;8.334;2023-05-18T07:37:43;100762.59;;;13.10;54.21
30598;BME280;17365;48.878;8.334;2023-05-18T07:40:11;100753.09;;;13.24;53.54
30598;BME280;17365;48.878;8.334;2023-05-18T07:42:38;100754.84;;;13.42;53.26
30598;BME280;17365;48.878;8.334;2023-05-18T07:45:06;100764.19;;;12.68;53.84
30598;BME280;17365;48.878;8.334;2023-05-18T07:47:33;100758.22;;;13.01;54.03
30598;BME280;17365;48.878;8.334;2023-05-18T07:49:59;100759.03;;;12.71;53.38
30598;BME280;17365;48.878;8.334;2023-05-18T07:52:25;100758.25;;;13.07;53.21
30598;BME280;17365;48.878;8.334;2023-05-18T07:54:51;100758.22;;;12.98;53.17
30598;BME280;17365;48.878;8.334;2023-05-18T07:57:16;100748.69;;;12.93;54.11
30598;BME280;17365;48.878;8.334;2023-05-18T07:59:42;100745.31;;;13.26;52.30
30598;BME280;17365;48.878;8.334;2023-05-18T08:02:07;100745.28;;;13.41;52.50
30598;BME280;17365;48.878;8.334;2023-05-18T08:04:32;100754.84;;;13.39;53.43
30598;BME280;17365;48.878;8.334;2023-05-18T08:06:57;100747.88;;;13.70;53.17
30598;BME280;17365;48.878;8.334;2023-05-18T08:09:25;100753.84;;;12.83;54.14
30598;BME280;17365;48.878;8.334;2023-05-18T08:11:50;100750.50;;;13.35;53.55
30598;BME280;17365;48.878;8.334;2023-05-18T08:14:16;100757.47;;;13.39;52.42
30598;BME280;17365;48.878;8.334;2023-05-18T08:16:41;100751.38;;;13.69;51.68
30598;BME280;17365;48.878;8.334;2023-05-18T08:19:06;100751.38;;;13.57;52.97
30598;BME280;17365;48.878;8.334;2023-05-18T08:21:31;100742.63;;;13.18;53.30
30598;BME280;17365;48.878;8.334;2023-05-18T08:23:57;100745.31;;;13.61;53.53
30598;BME280;17365;48.878;8.334;2023-05-18T08:26:22;100750.50;;;13.87;52.33
30598;BME280;17365;48.878;8.334;2023-05-18T08:28:48;100746.09;;;14.12;52.06
30598;BME280;17365;48.878;8.334;2023-05-18T08:31:13;100746.16;;;13.83;52.51
30598;BME280;17365;48.878;8.334;2023-05-18T08:33:39;100737.47;;;13.84;53.08
30598;BME280;17365;48.878;8.334;2023-05-18T08:36:04;100727.91;;;13.58;53.52
30598;BME280;17365;48.878;8.334;2023-05-18T08:38:30;100730.53;;;13.61;53.44
30598;BME280;17365;48.878;8.334;2023-05-18T08:41:00;100724.41;;;13.85;53.14
30598;BME280;17365;48.878;8.334;2023-05-18T08:43:26;100720.88;;;14.17;52.43
30598;BME280;17365;48.878;8.334;2023-05-18T08:48:22;100727.88;;;13.86;51.99
30598;BME280;17365;48.878;8.334;2023-05-18T08:50:48;100723.41;;;14.44;52.06
30598;BME280;17365;48.878;8.334;2023-05-18T08:53:15;100712.97;;;14.34;51.70
30598;BME280;17365;48.878;8.334;2023-05-18T08:55:42;100726.88;;;14.36;51.99
30598;BME280;17365;48.878;8.334;2023-05-18T08:58:09;100713.81;;;14.40;50.36
30598;BME280;17365;48.878;8.334;2023-05-18T09:00:37;100722.41;;;14.67;50.38
30598;BME280;17365;48.878;8.334;2023-05-18T09:03:03;100714.56;;;14.74;50.76
30598;BME280;17365;48.878;8.334;2023-05-18T09:05:29;100717.22;;;14.57;49.69
30598;BME280;17365;48.878;8.334;2023-05-18T09:07:54;100703.25;;;14.68;49.94
30598;BME280;17365;48.878;8.334;2023-05-18T09:10:20;100698.09;;;14.62;49.74
30598;BME280;17365;48.878;8.334;2023-05-18T09:12:46;100718.84;;;14.83;49.77
30598;BME280;17365;48.878;8.334;2023-05-18T09:15:14;100712.63;;;15.02;48.42
30598;BME280;17365;48.878;8.334;2023-05-18T09:17:40;100712.75;;;14.81;48.57
30598;BME280;17365;48.878;8.334;2023-05-18T09:20:05;100704.91;;;14.81;49.44
30598;BME280;17365;48.878;8.334;2023-05-18T09:22:31;100704.00;;;14.90;49.16
30598;BME280;17365;48.878;8.334;2023-05-18T09:24:56;100708.13;;;15.23;48.58
30598;BME280;17365;48.878;8.334;2023-05-18T09:27:22;100716.22;;;14.88;48.55
30598;BME280;17365;48.878;8.334;2023-05-18T09:29:54;100702.78;;;15.35;47.80
30598;BME280;17365;48.878;8.334;2023-05-18T09:32:23;100712.19;;;15.59;47.26
30598;BME280;17365;48.878;8.334;2023-05-18T09:34:49;100709.22;;;15.97;46.47
30598;BME280;17365;48.878;8.334;2023-05-18T09:37:17;100698.13;;;15.75;47.16
30598;BME280;17365;48.878;8.334;2023-05-18T09:39:43;100690.03;;;15.96;46.96
30598;BME280;17365;48.878;8.334;2023-05-18T09:42:08;100692.16;;;15.56;46.74
30598;BME280;17365;48.878;8.334;2023-05-18T09:44:39;100706.78;;;15.79;45.76
30598;BME280;17365;48.878;8.334;2023-05-18T09:47:10;100710.16;;;15.90;45.96
30598;BME280;17365;48.878;8.334;2023-05-18T09:49:35;100683.50;;;16.33;46.27
30598;BME280;17365;48.878;8.334;2023-05-18T09:52:01;100685.97;;;16.42;46.48
30598;BME280;17365;48.878;8.334;2023-05-18T09:54:27;100682.34;;;16.55;45.44
30598;BME280;17365;48.878;8.334;2023-05-18T09:56:52;100694.28;;;16.76;44.24
30598;BME280;17365;48.878;8.334;2023-05-18T09:59:17;100680.09;;;16.24;41.99
30598;BME280;17365;48.878;8.334;2023-05-18T10:04:20;100680.44;;;15.98;45.53
30598;BME280;17365;48.878;8.334;2023-05-18T10:06:48;100689.38;;;16.50;45.48
30598;BME280;17365;48.878;8.334;2023-05-18T10:09:14;100670.00;;;16.62;43.30
30598;BME280;17365;48.878;8.334;2023-05-18T10:11:40;100683.53;;;16.29;43.82
30598;BME280;17365;48.878;8.334;2023-05-18T10:14:05;100679.31;;;16.18;43.75
30598;BME280;17365;48.878;8.334;2023-05-18T10:16:30;100681.91;;;16.19;45.05
30598;BME280;17365;48.878;8.334;2023-05-18T10:18:56;100674.84;;;16.26;45.69
30598;BME280;17365;48.878;8.334;2023-05-18T10:21:23;100689.84;;;16.13;45.59
30598;BME280;17365;48.878;8.334;2023-05-18T10:23:50;100688.28;;;16.69;43.92
30598;BME280;17365;48.878;8.334;2023-05-18T10:26:16;100677.91;;;17.18;43.13
30598;BME280;17365;48.878;8.334;2023-05-18T10:28:44;100676.13;;;16.62;43.98
30598;BME280;17365;48.878;8.334;2023-05-18T10:31:11;100676.97;;;16.63;44.48
30598;BME280;17365;48.878;8.334;2023-05-18T10:33:37;100666.34;;;16.78;45.38
30598;BME280;17365;48.878;8.334;2023-05-18T10:36:02;100670.53;;;16.23;44.16
30598;BME280;17365;48.878;8.334;2023-05-18T10:38:27;100675.53;;;16.40;43.26
30598;BME280;17365;48.878;8.334;2023-05-18T10:40:55;100671.38;;;16.24;43.37
30598;BME280;17365;48.878;8.334;2023-05-18T10:43:22;100666.72;;;16.47;42.76
30598;BME280;17365;48.878;8.334;2023-05-18T10:45:54;100672.69;;;16.58;43.08
30598;BME280;17365;48.878;8.334;2023-05-18T10:48:20;100670.03;;;17.18;42.47
30598;BME280;17365;48.878;8.334;2023-05-18T10:50:48;100662.53;;;16.97;41.41
30598;BME280;17365;48.878;8.334;2023-05-18T10:53:16;100653.59;;;17.09;40.49
30598;BME280;17365;48.878;8.334;2023-05-18T10:55:41;100654.81;;;17.40;40.79
30598;BME280;17365;48.878;8.334;2023-05-18T10:58:08;100653.44;;;17.18;42.15
30598;BME280;17365;48.878;8.334;2023-05-18T11:00:35;100651.44;;;17.35;41.79
30598;BME280;17365;48.878;8.334;2023-05-18T11:03:00;100640.34;;;17.18;41.93
30598;BME280;17365;48.878;8.334;2023-05-18T11:05:26;100651.53;;;17.28;41.29
30598;BME280;17365;48.878;8.334;2023-05-18T11:07:58;100655.28;;;17.13;41.60
30598;BME280;17365;48.878;8.334;2023-05-18T11:10:23;100669.03;;;16.72;42.48
30598;BME280;17365;48.878;8.334;2023-05-18T11:12:58;100649.97;;;17.17;41.43
30598;BME280;17365;48.878;8.334;2023-05-18T11:15:36;100651.88;;;17.59;40.96
30598;BME280;17365;48.878;8.334;2023-05-18T11:18:11;100643.09;;;17.12;41.94
30598;BME280;17365;48.878;8.334;2023-05-18T11:20:37;100636.38;;;17.46;41.67
30598;BME280;17365;48.878;8.334;2023-05-18T11:23:02;100638.16;;;17.43;41.37
30598;BME280;17365;48.878;8.334;2023-05-18T11:27:53;100643.44;;;17.89;40.25
30598;BME280;17365;48.878;8.334;2023-05-18T11:30:25;100632.06;;;17.90;39.44
30598;BME280;17365;48.878;8.334;2023-05-18T11:32:50;100635.84;;;18.19;38.88
30598;BME280;17365;48.878;8.334;2023-05-18T11:35:21;100627.63;;;18.36;39.09
30598;BME280;17365;48.878;8.334;2023-05-18T11:37:47;100638.16;;;18.32;38.88
30598;BME280;17365;48.878;8.334;2023-05-18T11:42:57;100636.72;;;17.74;40.71
30598;BME280;17365;48.878;8.334;2023-05-18T11:45:23;100625.59;;;17.60;40.03
30598;BME280;17365;48.878;8.334;2023-05-18T11:47:49;100634.53;;;18.40;39.54
30598;BME280;17365;48.878;8.334;2023-05-18T11:50:20;100626.75;;;18.35;37.70
30598;BME280;17365;48.878;8.334;2023-05-18T11:52:45;100624.47;;;17.75;38.66
30598;BME280;17365;48.878;8.334;2023-05-18T11:55:12;100615.84;;;18.13;38.51
30598;BME280;17365;48.878;8.334;2023-05-18T11:57:38;100629.69;;;17.78;40.44
30598;BME280;17365;48.878;8.334;2023-05-18T12:00:05;100625.59;;;18.07;38.85
30598;BME280;17365;48.878;8.334;2023-05-18T12:02:37;100628.47;;;18.36;39.73
30598;BME280;17365;48.878;8.334;2023-05-18T12:05:06;100631.47;;;17.74;38.92
30598;BME280;17365;48.878;8.334;2023-05-18T12:07:32;100628.16;;;18.10;39.19
30598;BME280;17365;48.878;8.334;2023-05-18T12:09:59;100634.47;;;17.99;39.85
30598;BME280;17365;48.878;8.334;2023-05-18T12:12:26;100621.50;;;18.35;38.79
30598;BME280;17365;48.878;8.334;2023-05-18T12:14:52;100618.06;;;18.72;39.17
30598;BME280;17365;48.878;8.334;2023-05-18T12:17:18;100620.47;;;18.00;39.99
30598;BME280;17365;48.878;8.334;2023-05-18T12:19:45;100622.09;;;17.61;40.49
30598;BME280;17365;48.878;8.334;2023-05-18T12:22:11;100617.88;;;17.53;40.73
30598;BME280;17365;48.878;8.334;2023-05-18T12:24:39;100612.84;;;17.40;40.92
30598;BME280;17365;48.878;8.334;2023-05-18T12:27:09;100605.75;;;17.93;39.84
30598;BME280;17365;48.878;8.334;2023-05-18T12:29:38;100607.09;;;17.68;40.26
30598;BME280;17365;48.878;8.334;2023-05-18T12:32:04;100604.56;;;17.63;39.16
30598;BME280;17365;48.878;8.334;2023-05-18T12:34:30;100592.81;;;17.84;40.34
30598;BME280;17365;48.878;8.334;2023-05-18T12:36:55;100594.19;;;17.57;39.82
30598;BME280;17365;48.878;8.334;2023-05-18T12:39:20;100594.88;;;17.67;40.10
30598;BME280;17365;48.878;8.334;2023-05-18T12:41:46;100585.94;;;17.79;40.16
30598;BME280;17365;48.878;8.334;2023-05-18T12:44:11;100579.97;;;17.70;39.78
30598;BME280;17365;48.878;8.334;2023-05-18T12:46:36;100590.19;;;18.26;38.97
30598;BME280;17365;48.878;8.334;2023-05-18T12:49:02;100582.13;;;17.93;39.81
30598;BME280;17365;48.878;8.334;2023-05-18T12:51:32;100580.88;;;18.10;38.69
30598;BME280;17365;48.878;8.334;2023-05-18T12:53:57;100570.50;;;18.05;38.64
30598;BME280;17365;48.878;8.334;2023-05-18T12:56:22;100576.19;;;17.84;39.44
30598;BME280;17365;48.878;8.334;2023-05-18T12:58:57;100575.25;;;17.86;38.85
30598;BME280;17365;48.878;8.334;2023-05-18T13:01:23;100578.03;;;18.20;38.71
30598;BME280;17365;48.878;8.334;2023-05-18T13:03:53;100564.47;;;18.77;38.02
30598;BME280;17365;48.878;8.334;2023-05-18T13:06:18;100577.78;;;18.31;38.28
30598;BME280;17365;48.878;8.334;2023-05-18T13:08:44;100575.13;;;18.32;37.80
30598;BME280;17365;48.878;8.334;2023-05-18T13:11:09;100581.78;;;18.09;38.24
30598;BME280;17365;48.878;8.334;2023-05-18T13:13:39;100576.34;;;18.18;37.84